createdAt,value
2019-02-04T00:01:48.317Z,101371.33
2019-02-04T00:04:17.399Z,101365.33
2019-02-04T00:06:46.517Z,101372.52
2019-02-04T00:09:16.012Z,101372.52
2019-02-04T00:11:45.102Z,101377.80
2019-02-04T00:14:14.365Z,101377.80
2019-02-04T00:16:43.701Z,101370.41
2019-02-04T00:19:12.927Z,101373.19
2019-02-04T00:21:42.094Z,101369.62
2019-02-04T00:24:11.192Z,101376.16
2019-02-04T00:26:51.056Z,101371.70
2019-02-04T00:29:11.346Z,101371.70
2019-02-04T00:31:40.819Z,101369.02
2019-02-04T00:34:09.911Z,101369.02
2019-02-04T00:36:39.212Z,101373.75
2019-02-04T00:39:09.375Z,101373.75
2019-02-04T00:41:38.936Z,101366.91
2019-02-04T00:44:08.212Z,101373.98
2019-02-04T00:46:37.288Z,101373.98
2019-02-04T00:49:06.447Z,101359.08
2019-02-04T00:51:35.543Z,101373.88
2019-02-04T00:54:05.115Z,101374.13
2019-02-04T00:56:34.889Z,101377.00
2019-02-04T00:59:05.918Z,101377.00
2019-02-04T01:01:35.498Z,101387.36
2019-02-04T01:04:05.249Z,101387.36
2019-02-04T01:06:34.784Z,101391.71
2019-02-04T01:09:06.163Z,101383.31
2019-02-04T01:11:35.335Z,101392.34
2019-02-04T01:14:04.465Z,101390.66
2019-02-04T01:16:33.830Z,101399.59
2019-02-04T01:19:03.160Z,101399.59
2019-02-04T01:21:32.393Z,101397.79
2019-02-04T01:24:02.221Z,101400.34
2019-02-04T01:26:31.565Z,101396.27
2019-02-04T01:29:00.592Z,101396.27
2019-02-04T01:31:29.916Z,101409.14
2019-02-04T01:33:59.043Z,101402.16
2019-02-04T01:36:28.321Z,101400.73
2019-02-04T01:38:57.601Z,101398.20
2019-02-04T01:41:27.627Z,101404.28
2019-02-04T01:43:57.026Z,101404.28
2019-02-04T01:46:26.265Z,101407.12
2019-02-04T01:48:55.369Z,101414.98
2019-02-04T01:51:24.579Z,101414.98
2019-02-04T01:53:53.854Z,101417.77
2019-02-04T01:56:23.180Z,101418.12
2019-02-04T01:58:52.329Z,101418.12
2019-02-04T02:01:21.589Z,101421.23
2019-02-04T02:03:50.697Z,101421.23
2019-02-04T02:06:19.988Z,101439.42
2019-02-04T02:08:49.251Z,101439.42
2019-02-04T02:11:18.475Z,101440.59
2019-02-04T02:13:47.611Z,101440.70
2019-02-04T02:16:16.735Z,101440.70
2019-02-04T02:18:46.043Z,101423.22
2019-02-04T02:21:15.382Z,101423.22
2019-02-04T02:23:44.541Z,101451.45
2019-02-04T02:26:14.096Z,101446.39
2019-02-04T02:28:43.214Z,101446.39
2019-02-04T02:31:12.385Z,101443.84
2019-02-04T02:33:41.473Z,101445.98
2019-02-04T02:36:11.191Z,101449.19
2019-02-04T02:38:40.723Z,101449.19
2019-02-04T02:41:10.020Z,101443.31
2019-02-04T02:43:39.596Z,101446.88
2019-02-04T02:46:08.680Z,101447.55
2019-02-04T02:48:37.879Z,101447.55
2019-02-04T02:51:06.961Z,101451.00
2019-02-04T02:53:36.180Z,101452.02
2019-02-04T02:56:05.578Z,101449.82
2019-02-04T02:58:34.985Z,101455.32
2019-02-04T03:01:04.094Z,101454.09
2019-02-04T03:03:33.171Z,101456.14
2019-02-04T03:06:02.249Z,101456.89
2019-02-04T03:08:31.531Z,101461.07
2019-02-04T03:11:00.645Z,101451.69
2019-02-04T03:13:29.868Z,101459.36
2019-02-04T03:15:59.193Z,101466.42
2019-02-04T03:18:28.284Z,101464.53
2019-02-04T03:20:57.936Z,101466.42
2019-02-04T03:23:27.187Z,101469.06
2019-02-04T03:25:56.291Z,101467.28
2019-02-04T03:28:25.338Z,101468.95
2019-02-04T03:30:54.544Z,101464.56
2019-02-04T03:33:24.124Z,101457.53
2019-02-04T03:35:53.521Z,101463.05
2019-02-04T03:38:22.990Z,101466.97
2019-02-04T03:40:52.493Z,101462.30
2019-02-04T03:43:21.721Z,101468.89
2019-02-04T03:45:50.858Z,101470.63
2019-02-04T03:48:20.381Z,101471.09
2019-02-04T03:50:49.486Z,101471.77
2019-02-04T03:53:18.575Z,101473.03
2019-02-04T03:55:47.795Z,101477.05
2019-02-04T03:58:16.876Z,101475.93
2019-02-04T04:00:46.191Z,101478.20
2019-02-04T04:03:15.489Z,101478.61
2019-02-04T04:05:44.614Z,101480.60
2019-02-04T04:08:13.720Z,101479.03
2019-02-04T04:10:42.936Z,101474.81
2019-02-04T04:13:12.254Z,101475.43
2019-02-04T04:15:41.471Z,101475.73
2019-02-04T04:18:16.001Z,101484.34
2019-02-04T04:20:41.410Z,101486.23
2019-02-04T04:23:10.489Z,101488.01
2019-02-04T04:25:39.573Z,101475.33
2019-02-04T04:28:08.684Z,101486.11
2019-02-04T04:30:38.231Z,101482.62
2019-02-04T04:33:07.355Z,101488.49
2019-02-04T04:35:36.535Z,101480.79
2019-02-04T04:38:05.621Z,101470.75
2019-02-04T04:40:34.944Z,101479.14
2019-02-04T04:43:04.050Z,101478.29
2019-02-04T04:45:33.587Z,101478.84
2019-02-04T04:48:02.696Z,101480.13
2019-02-04T04:50:31.803Z,101478.77
2019-02-04T04:53:01.020Z,101481.34
2019-02-04T04:55:30.099Z,101485.92
2019-02-04T04:57:59.214Z,101482.72
2019-02-04T05:00:30.793Z,101481.09
2019-02-04T05:03:00.434Z,101484.50
2019-02-04T05:05:29.756Z,101491.23
2019-02-04T05:07:58.958Z,101483.58
2019-02-04T05:10:28.321Z,101477.70
2019-02-04T05:12:57.437Z,101482.86
2019-02-04T05:15:27.717Z,101480.89
2019-02-04T05:17:56.913Z,101479.51
2019-02-04T05:20:26.111Z,101480.72
2019-02-04T05:22:55.239Z,101494.46
2019-02-04T05:25:24.593Z,101496.47
2019-02-04T05:27:54.266Z,101500.88
2019-02-04T05:30:24.757Z,101503.16
2019-02-04T05:32:54.129Z,101507.41
2019-02-04T05:35:23.491Z,101513.69
2019-02-04T05:37:52.899Z,101518.60
2019-02-04T05:40:22.028Z,101522.36
2019-02-04T05:42:51.100Z,101530.36
2019-02-04T05:45:20.350Z,101534.34
2019-02-04T05:47:49.517Z,101535.30
2019-02-04T05:50:19.652Z,101533.48
2019-02-04T05:52:49.337Z,101530.58
2019-02-04T05:55:20.105Z,101531.14
2019-02-04T05:57:49.385Z,101531.04
2019-02-04T06:00:40.890Z,101529.75
2019-02-04T06:03:10.248Z,101534.36
2019-02-04T06:05:39.443Z,101528.34
2019-02-04T06:08:08.578Z,101519.28
2019-02-04T06:10:38.053Z,101519.09
2019-02-04T06:13:07.111Z,101521.63
2019-02-04T06:15:36.372Z,101515.97
2019-02-04T06:18:05.523Z,101514.58
2019-02-04T06:20:35.111Z,101506.02
2019-02-04T06:23:04.316Z,101501.94
2019-02-04T06:25:33.517Z,101500.85
2019-02-04T06:28:02.878Z,101496.08
2019-02-04T06:30:31.929Z,101486.62
2019-02-04T06:33:01.073Z,101483.92
2019-02-04T06:35:30.523Z,101485.17
2019-02-04T06:37:59.732Z,101484.68
2019-02-04T06:40:28.891Z,101497.36
2019-02-04T06:42:58.251Z,101496.56
2019-02-04T06:45:27.303Z,101509.09
2019-02-04T06:47:56.566Z,101507.97
2019-02-04T06:50:25.906Z,101507.73
2019-02-04T06:52:55.006Z,101502.66
2019-02-04T06:55:27.242Z,101510.01
2019-02-04T06:57:56.362Z,101511.13
2019-02-04T07:00:25.532Z,101519.43
2019-02-04T07:02:54.734Z,101520.19
2019-02-04T07:05:23.865Z,101513.96
2019-02-04T07:07:52.981Z,101509.78
2019-02-04T07:10:23.688Z,101512.45
2019-02-04T07:12:53.076Z,101516.42
2019-02-04T07:15:22.737Z,101520.09
2019-02-04T07:17:52.083Z,101527.27
2019-02-04T07:20:24.861Z,101522.88
2019-02-04T07:22:54.034Z,101524.83
2019-02-04T07:25:24.467Z,101538.13
2019-02-04T07:27:53.925Z,101540.12
2019-02-04T07:30:25.055Z,101552.50
2019-02-04T07:32:54.795Z,101565.17
2019-02-04T07:35:24.142Z,101562.69
2019-02-04T07:37:53.381Z,101563.29
2019-02-04T07:40:25.948Z,101561.51
2019-02-04T07:42:55.156Z,101569.38
2019-02-04T07:45:24.292Z,101573.00
2019-02-04T07:47:53.579Z,101576.08
2019-02-04T07:50:22.781Z,101576.55
2019-02-04T07:52:51.853Z,101581.27
2019-02-04T07:55:20.938Z,101582.19
2019-02-04T07:57:50.247Z,101590.82
2019-02-04T08:00:24.336Z,101588.69
2019-02-04T08:02:53.830Z,101582.83
2019-02-04T08:05:25.351Z,101592.66
2019-02-04T08:07:54.666Z,101581.57
2019-02-04T08:10:23.776Z,101579.59
2019-02-04T08:13:01.115Z,101579.59
2019-02-04T08:15:26.641Z,101591.71
2019-02-04T08:17:57.830Z,101585.65
2019-02-04T08:20:28.159Z,101590.42
2019-02-04T08:22:57.632Z,101585.34
2019-02-04T08:25:27.033Z,101585.34
2019-02-04T08:27:56.520Z,101589.71
2019-02-04T08:30:34.043Z,101589.71
2019-02-04T08:33:03.363Z,101593.09
2019-02-04T08:35:32.776Z,101599.00
2019-02-04T08:38:02.289Z,101580.70
2019-02-04T08:40:31.561Z,101580.70
2019-02-04T08:43:00.883Z,101568.89
2019-02-04T08:45:30.064Z,101571.05
2019-02-04T08:47:59.358Z,101571.05
2019-02-04T08:50:28.959Z,101573.67
2019-02-04T08:52:58.268Z,101574.54
2019-02-04T08:55:27.390Z,101574.54
2019-02-04T08:57:56.997Z,101570.41
2019-02-04T09:00:26.925Z,101570.41
2019-02-04T09:02:56.031Z,101573.17
2019-02-04T09:05:25.795Z,101569.33
2019-02-04T09:07:54.914Z,101569.33
2019-02-04T09:10:29.739Z,101566.08
2019-02-04T09:12:59.713Z,101541.50
2019-02-04T09:15:29.096Z,101541.50
2019-02-04T09:17:59.120Z,101551.02
2019-02-04T09:20:28.592Z,101553.31
2019-02-04T09:22:57.822Z,101543.80
2019-02-04T09:25:27.309Z,101534.00
2019-02-04T09:27:57.013Z,101534.00
2019-02-04T09:30:28.208Z,101531.39
2019-02-04T09:32:58.335Z,101522.30
2019-02-04T09:35:27.641Z,101530.98
2019-02-04T09:37:56.846Z,101524.23
2019-02-04T09:40:31.809Z,101532.20
2019-02-04T09:43:01.205Z,101538.74
2019-02-04T09:45:30.530Z,101551.34
2019-02-04T09:47:59.598Z,101553.18
2019-02-04T09:50:32.442Z,101556.03
2019-02-04T09:53:01.185Z,101558.20
2019-02-04T09:55:33.154Z,101564.98
2019-02-04T09:58:02.271Z,101563.20
2019-02-04T10:00:32.860Z,101562.28
2019-02-04T10:03:01.969Z,101559.26
2019-02-04T10:05:32.055Z,101562.00
2019-02-04T10:08:01.415Z,101562.27
2019-02-04T10:10:30.759Z,101557.09
2019-02-04T10:12:59.901Z,101556.67
2019-02-04T10:15:34.007Z,101558.08
2019-02-04T10:18:03.073Z,101562.56
2019-02-04T10:20:34.450Z,101556.95
2019-02-04T10:23:03.472Z,101556.10
2019-02-04T10:25:34.969Z,101562.13
2019-02-04T10:28:04.223Z,101556.64
2019-02-04T10:30:34.925Z,101549.17
2019-02-04T10:33:04.199Z,101556.84
2019-02-04T10:35:33.563Z,101548.22
2019-02-04T10:38:02.731Z,101542.03
2019-02-04T10:40:32.245Z,101529.97
2019-02-04T10:43:01.486Z,101528.47
2019-02-04T10:45:30.696Z,101527.58
2019-02-04T10:47:59.821Z,101529.05
2019-02-04T10:50:31.657Z,101521.55
2019-02-04T10:53:00.977Z,101517.39
2019-02-04T10:55:30.032Z,101515.83
2019-02-04T10:57:59.229Z,101499.85
2019-02-04T11:00:30.483Z,101494.37
2019-02-04T11:02:59.882Z,101495.47
2019-02-04T11:05:30.670Z,101490.91
2019-02-04T11:08:00.242Z,101483.97
2019-02-04T11:10:32.787Z,101481.30
2019-02-04T11:13:03.045Z,101471.64
2019-02-04T11:15:32.115Z,101479.41
2019-02-04T11:18:02.001Z,101464.92
2019-02-04T11:20:31.341Z,101464.75
2019-02-04T11:23:00.500Z,101464.61
2019-02-04T11:25:29.810Z,101459.52
2019-02-04T11:27:58.992Z,101451.91
2019-02-04T11:30:34.178Z,101445.60
2019-02-04T11:33:03.287Z,101456.44
2019-02-04T11:35:32.430Z,101451.70
2019-02-04T11:38:01.676Z,101444.13
2019-02-04T11:40:33.189Z,101440.53
2019-02-04T11:43:02.343Z,101436.13
2019-02-04T11:45:31.933Z,101431.01
2019-02-04T11:48:01.750Z,101429.66
2019-02-04T11:50:30.871Z,101432.52
2019-02-04T11:52:59.944Z,101426.48
2019-02-04T11:55:29.145Z,101425.00
2019-02-04T11:57:58.242Z,101412.74
2019-02-04T12:00:28.973Z,101416.67
2019-02-04T12:03:00.017Z,101417.88
2019-02-04T12:05:29.099Z,101414.69
2019-02-04T12:07:58.141Z,101415.56
2019-02-04T12:10:37.071Z,101412.80
2019-02-04T12:13:06.111Z,101408.81
2019-02-04T12:15:35.369Z,101403.80
2019-02-04T12:18:04.711Z,101406.23
2019-02-04T12:20:33.784Z,101402.45
2019-02-04T12:23:03.066Z,101396.47
2019-02-04T12:25:33.232Z,101397.72
2019-02-04T12:28:02.342Z,101393.06
2019-02-04T12:30:33.875Z,101386.08
2019-02-04T12:33:04.316Z,101386.83
2019-02-04T12:35:33.372Z,101388.92
2019-02-04T12:38:02.471Z,101382.31
2019-02-04T12:40:32.512Z,101387.88
2019-02-04T12:43:01.781Z,101391.02
2019-02-04T12:45:33.207Z,101387.30
2019-02-04T12:48:05.552Z,101385.83
2019-02-04T12:50:35.067Z,101386.06
2019-02-04T12:53:04.526Z,101375.57
2019-02-04T12:55:33.843Z,101375.36
2019-02-04T12:58:02.975Z,101382.59
2019-02-04T13:00:32.537Z,101367.89
2019-02-04T13:03:01.675Z,101369.23
2019-02-04T13:05:39.394Z,101368.44
2019-02-04T13:08:10.711Z,101361.44
2019-02-04T13:10:39.758Z,101360.84
2019-02-04T13:13:11.542Z,101355.09
2019-02-04T13:15:41.056Z,101357.28
2019-02-04T13:18:10.451Z,101360.80
2019-02-04T13:20:39.764Z,101354.66
2019-02-04T13:23:09.028Z,101353.69
2019-02-04T13:25:42.095Z,101349.06
2019-02-04T13:28:15.098Z,101358.77
2019-02-04T13:30:44.204Z,101340.11
2019-02-04T13:33:13.356Z,101339.03
2019-02-04T13:35:42.579Z,101337.55
2019-02-04T13:38:12.293Z,101336.70
2019-02-04T13:40:44.676Z,101333.30
2019-02-04T13:43:14.257Z,101336.55
2019-02-04T13:45:44.563Z,101338.14
2019-02-04T13:48:14.053Z,101335.70
2019-02-04T13:50:43.338Z,101336.66
2019-02-04T13:53:12.432Z,101332.73
2019-02-04T13:55:42.362Z,101340.47
2019-02-04T13:58:11.753Z,101332.97
2019-02-04T14:00:41.154Z,101332.38
2019-02-04T14:03:10.352Z,101326.83
2019-02-04T14:05:39.433Z,101328.95
2019-02-04T14:08:08.720Z,101327.55
2019-02-04T14:10:40.644Z,101325.63
2019-02-04T14:13:09.907Z,101325.07
2019-02-04T14:15:40.795Z,101323.19
2019-02-04T14:18:10.520Z,101324.72
2019-02-04T14:20:39.638Z,101316.91
2019-02-04T14:23:09.051Z,101317.61
2019-02-04T14:25:38.169Z,101323.64
2019-02-04T14:28:07.364Z,101322.65
2019-02-04T14:30:38.569Z,101325.58
2019-02-04T14:33:07.686Z,101333.78
2019-02-04T14:35:36.882Z,101336.89
2019-02-04T14:38:07.718Z,101329.41
2019-02-04T14:40:37.314Z,101323.20
2019-02-04T14:43:31.508Z,101323.94
2019-02-04T14:46:28.254Z,101310.61
2019-02-04T14:49:41.838Z,101314.39
2019-02-04T14:52:51.318Z,101313.88
2019-02-04T14:55:43.994Z,101318.68
2019-02-04T14:58:57.145Z,101322.77
2019-02-04T15:02:15.888Z,101317.37
2019-02-04T15:05:11.121Z,101321.59
2019-02-04T15:08:33.273Z,101311.16
2019-02-04T15:11:23.405Z,101312.36
2019-02-04T15:14:18.137Z,101303.43
2019-02-04T15:16:58.937Z,101308.99
2019-02-04T15:20:27.432Z,101307.52
2019-02-04T15:23:36.824Z,101305.61
2019-02-04T15:26:43.198Z,101306.33
2019-02-04T15:29:46.158Z,101298.73
2019-02-04T15:32:42.045Z,101287.97
2019-02-04T15:35:49.094Z,101294.15
2019-02-04T15:38:43.567Z,101286.30
2019-02-04T15:41:53.238Z,101273.38
2019-02-04T15:45:17.843Z,101272.91
2019-02-04T15:48:09.834Z,101267.24
2019-02-04T15:51:07.042Z,101257.31
2019-02-04T15:53:36.252Z,101270.33
2019-02-04T15:56:07.662Z,101265.58
2019-02-04T15:58:36.808Z,101270.62
2019-02-04T16:01:06.853Z,101274.98
2019-02-04T16:03:36.082Z,101276.50
2019-02-04T16:06:05.262Z,101277.07
2019-02-04T16:08:35.404Z,101274.13
2019-02-04T16:11:04.874Z,101276.78
2019-02-04T16:13:34.200Z,101271.41
2019-02-04T16:16:04.219Z,101281.88
2019-02-04T16:18:33.455Z,101273.05
2019-02-04T16:21:02.658Z,101274.21
2019-02-04T16:23:31.732Z,101280.75
2019-02-04T16:26:01.186Z,101278.98
2019-02-04T16:28:30.615Z,101273.75
2019-02-04T16:30:59.766Z,101269.33
2019-02-04T16:33:29.092Z,101266.10
2019-02-04T16:35:58.336Z,101270.64
2019-02-04T16:38:28.026Z,101269.98
2019-02-04T16:40:57.614Z,101264.13
2019-02-04T16:43:26.724Z,101265.94
2019-02-04T16:45:55.971Z,101266.00
2019-02-04T16:48:25.181Z,101270.67
2019-02-04T16:51:10.565Z,101268.77
2019-02-04T16:53:25.261Z,101271.27
2019-02-04T16:55:54.673Z,101273.82
2019-02-04T16:58:23.793Z,101274.59
2019-02-04T17:00:53.295Z,101285.42
2019-02-04T17:03:22.503Z,101286.09
2019-02-04T17:05:51.630Z,101285.70
2019-02-04T17:08:20.852Z,101286.02
2019-02-04T17:10:50.220Z,101287.16
2019-02-04T17:13:19.406Z,101287.01
2019-02-04T17:15:48.671Z,101283.18
2019-02-04T17:18:18.015Z,101287.34
2019-02-04T17:20:47.162Z,101291.73
2019-02-04T17:23:22.457Z,101297.43
2019-02-04T17:25:47.373Z,101298.25
2019-02-04T17:28:16.706Z,101306.02
2019-02-04T17:30:45.890Z,101298.44
2019-02-04T17:33:15.225Z,101300.16
2019-02-04T17:35:44.625Z,101303.80
2019-02-04T17:38:14.051Z,101307.30
2019-02-04T17:40:43.807Z,101298.75
2019-02-04T17:43:12.970Z,101296.05
2019-02-04T17:45:42.054Z,101296.05
2019-02-04T17:48:11.149Z,101293.96
2019-02-04T17:50:40.351Z,101286.69
2019-02-04T17:53:09.640Z,101285.50
2019-02-04T17:55:39.233Z,101286.05
2019-02-04T17:58:08.457Z,101286.05
2019-02-04T18:00:40.555Z,101275.55
2019-02-04T18:03:09.715Z,101284.32
2019-02-04T18:05:38.801Z,101280.77
2019-02-04T18:08:08.664Z,101286.84
2019-02-04T18:10:38.150Z,101286.84
2019-02-04T18:13:07.296Z,101282.27
2019-02-04T18:15:36.553Z,101278.89
2019-02-04T18:18:06.602Z,101287.52
2019-02-04T18:20:36.783Z,101290.09
2019-02-04T18:23:07.088Z,101292.87
2019-02-04T18:25:36.556Z,101292.87
2019-02-04T18:28:06.606Z,101288.61
2019-02-04T18:30:36.560Z,101295.33
2019-02-04T18:33:05.670Z,101297.10
2019-02-04T18:35:35.367Z,101294.26
2019-02-04T18:38:04.624Z,101294.26
2019-02-04T18:40:34.001Z,101289.34
2019-02-04T18:43:03.181Z,101281.64
2019-02-04T18:45:33.615Z,101298.84
2019-02-04T18:48:03.329Z,101300.76
2019-02-04T18:50:33.431Z,101295.77
2019-02-04T18:53:02.530Z,101297.03
2019-02-04T18:55:33.064Z,101301.17
2019-02-04T18:58:02.735Z,101301.30
2019-02-04T19:00:32.505Z,101296.94
2019-02-04T19:03:02.567Z,101305.71
2019-02-04T19:05:31.834Z,101300.09
2019-02-04T19:08:01.105Z,101300.09
2019-02-04T19:10:30.441Z,101295.33
2019-02-04T19:13:00.347Z,101295.33
2019-02-04T19:15:29.791Z,101297.86
2019-02-04T19:18:02.510Z,101292.27
2019-02-04T19:20:31.913Z,101292.27
2019-02-04T19:23:01.487Z,101298.73
2019-02-04T19:25:32.489Z,101298.77
2019-02-04T19:28:01.832Z,101306.21
2019-02-04T19:30:40.401Z,101303.94
2019-02-04T19:33:09.757Z,101303.94
2019-02-04T19:35:39.026Z,101313.58
2019-02-04T19:38:08.156Z,101303.71
2019-02-04T19:40:37.301Z,101302.89
2019-02-04T19:43:06.773Z,101291.69
2019-02-04T19:45:37.800Z,101296.16
2019-02-04T19:48:07.306Z,101304.69
2019-02-04T19:50:37.017Z,101300.34
2019-02-04T19:53:06.782Z,101296.49
2019-02-04T19:55:36.080Z,101296.49
2019-02-04T19:58:06.043Z,101295.06
2019-02-04T20:00:35.372Z,101302.48
2019-02-04T20:03:05.606Z,101301.55
2019-02-04T20:05:35.675Z,101301.55
2019-02-04T20:08:06.075Z,101306.46
2019-02-04T20:10:35.853Z,101307.09
2019-02-04T20:13:05.555Z,101307.09
2019-02-04T20:15:35.188Z,101311.76
2019-02-04T20:18:04.670Z,101300.44
2019-02-04T20:20:33.808Z,101300.44
2019-02-04T20:23:03.974Z,101301.06
2019-02-04T20:25:33.983Z,101301.06
2019-02-04T20:28:04.517Z,101310.25
2019-02-04T20:30:45.737Z,101310.25
2019-02-04T20:33:10.880Z,101308.68
2019-02-04T20:35:40.648Z,101309.30
2019-02-04T20:38:10.189Z,101308.66
2019-02-04T20:40:39.577Z,101311.45
2019-02-04T20:43:09.162Z,101311.45
2019-02-04T20:45:40.406Z,101308.45
2019-02-04T20:48:11.958Z,101305.70
2019-02-04T20:50:42.637Z,101307.11
2019-02-04T20:53:12.074Z,101305.80
2019-02-04T20:55:41.758Z,101305.80
2019-02-04T20:58:11.544Z,101301.09
2019-02-04T21:00:40.977Z,101301.09
2019-02-04T21:03:10.679Z,101312.30
2019-02-04T21:05:40.247Z,101314.59
2019-02-04T21:08:09.386Z,101312.94
2019-02-04T21:10:38.984Z,101312.94
2019-02-04T21:13:08.821Z,101312.09
2019-02-04T21:15:38.765Z,101301.39
2019-02-04T21:18:08.276Z,101307.64
2019-02-04T21:20:37.424Z,101313.73
2019-02-04T21:23:06.725Z,101304.02
2019-02-04T21:25:36.218Z,101316.89
2019-02-04T21:28:06.079Z,101315.95
2019-02-04T21:30:40.903Z,101309.58
2019-02-04T21:33:10.200Z,101306.06
2019-02-04T21:35:39.487Z,101306.06
2019-02-04T21:38:09.239Z,101299.70
2019-02-04T21:40:38.498Z,101299.70
2019-02-04T21:43:07.742Z,101307.27
2019-02-04T21:45:36.882Z,101303.19
2019-02-04T21:48:10.590Z,101314.38
2019-02-04T21:50:39.746Z,101312.45
2019-02-04T21:53:09.546Z,101312.45
2019-02-04T21:55:38.989Z,101306.07
2019-02-04T21:58:08.408Z,101311.13
2019-02-04T22:00:39.492Z,101314.38
2019-02-04T22:03:09.126Z,101310.55
2019-02-04T22:05:38.361Z,101310.55
2019-02-04T22:08:09.118Z,101308.37
2019-02-04T22:10:38.541Z,101314.28
2019-02-04T22:13:07.710Z,101313.19
2019-02-04T22:15:37.369Z,101313.19
2019-02-04T22:18:07.051Z,101305.97
2019-02-04T22:20:36.644Z,101305.97
2019-02-04T22:23:05.976Z,101306.23
2019-02-04T22:25:36.654Z,101329.47
2019-02-04T22:28:07.033Z,101329.47
2019-02-04T22:30:36.127Z,101330.78
2019-02-04T22:33:05.544Z,101330.78
2019-02-04T22:35:34.706Z,101335.47
2019-02-04T22:38:04.593Z,101335.47
2019-02-04T22:40:34.981Z,101338.94
2019-02-04T22:43:04.256Z,101337.26
2019-02-04T22:45:33.559Z,101337.26
2019-02-04T22:48:02.929Z,101341.46
2019-02-04T22:50:32.356Z,101349.98
2019-02-04T22:53:02.643Z,101344.56
2019-02-04T22:55:32.872Z,101344.56
2019-02-04T22:58:02.630Z,101337.10
2019-02-04T23:00:48.511Z,101344.88
2019-02-04T23:03:19.216Z,101348.61
2019-02-04T23:05:49.795Z,101348.37
2019-02-04T23:08:18.949Z,101349.30
2019-02-04T23:10:48.078Z,101349.38
2019-02-04T23:13:17.185Z,101345.31
2019-02-04T23:15:46.561Z,101343.34
2019-02-04T23:18:15.860Z,101348.05
2019-02-04T23:20:44.947Z,101345.31
2019-02-04T23:23:14.115Z,101330.67
2019-02-04T23:25:43.937Z,101330.67
2019-02-04T23:28:13.070Z,101327.65
2019-02-04T23:30:42.239Z,101327.65
2019-02-04T23:33:11.350Z,101322.64
2019-02-04T23:35:40.595Z,101321.72
2019-02-04T23:38:09.701Z,101322.03
2019-02-04T23:40:38.982Z,101320.34
2019-02-04T23:43:08.174Z,101318.05
2019-02-04T23:45:37.268Z,101322.98
2019-02-04T23:48:06.693Z,101321.81
2019-02-04T23:50:35.788Z,101320.14
2019-02-04T23:53:05.583Z,101327.65
2019-02-04T23:55:36.086Z,101332.05
2019-02-04T23:58:05.505Z,101335.41
